sensor_id;sensor_type;location;lat;lon;timestamp;temperature;humidity
69009;SHT31;56065;52.472;13.380;2023-08-24T00:02:02;20.51;76.98
69009;SHT31;56065;52.472;13.380;2023-08-24T00:04:28;20.51;77.03
69009;SHT31;56065;52.472;13.380;2023-08-24T00:06:54;20.48;77.12
69009;SHT31;56065;52.472;13.380;2023-08-24T00:09:20;20.45;77.21
69009;SHT31;56065;52.472;13.380;2023-08-24T00:11:45;20.44;77.03
69009;SHT31;56065;52.472;13.380;2023-08-24T00:14:10;20.43;77.17
69009;SHT31;56065;52.472;13.380;2023-08-24T00:16:37;20.40;77.21
69009;SHT31;56065;52.472;13.380;2023-08-24T00:19:02;20.38;77.44
69009;SHT31;56065;52.472;13.380;2023-08-24T00:21:27;20.37;77.39
69009;SHT31;56065;52.472;13.380;2023-08-24T00:23:54;20.37;77.43
69009;SHT31;56065;52.472;13.380;2023-08-24T00:26:19;20.36;77.24
69009;SHT31;56065;52.472;13.380;2023-08-24T00:28:45;20.33;77.28
69009;SHT31;56065;52.472;13.380;2023-08-24T00:31:10;20.30;77.49
69009;SHT31;56065;52.472;13.380;2023-08-24T00:33:37;20.27;77.71
69009;SHT31;56065;52.472;13.380;2023-08-24T00:36:03;20.28;77.88
69009;SHT31;56065;52.472;13.380;2023-08-24T00:38:29;20.20;77.91
69009;SHT31;56065;52.472;13.380;2023-08-24T00:40:55;20.20;77.98
69009;SHT31;56065;52.472;13.380;2023-08-24T00:43:21;20.17;78.19
69009;SHT31;56065;52.472;13.380;2023-08-24T00:45:53;20.13;78.32
69009;SHT31;56065;52.472;13.380;2023-08-24T00:48:20;20.12;78.38
69009;SHT31;56065;52.472;13.380;2023-08-24T00:50:51;20.07;78.33
69009;SHT31;56065;52.472;13.380;2023-08-24T00:53:17;20.06;78.26
69009;SHT31;56065;52.472;13.380;2023-08-24T00:55:44;19.98;78.59
69009;SHT31;56065;52.472;13.380;2023-08-24T00:58:09;19.98;78.72
69009;SHT31;56065;52.472;13.380;2023-08-24T01:00:35;19.94;78.80
69009;SHT31;56065;52.472;13.380;2023-08-24T01:03:01;19.93;78.70
69009;SHT31;56065;52.472;13.380;2023-08-24T01:05:26;19.94;78.67
69009;SHT31;56065;52.472;13.380;2023-08-24T01:07:52;19.89;78.94
69009;SHT31;56065;52.472;13.380;2023-08-24T01:10:17;19.87;79.02
69009;SHT31;56065;52.472;13.380;2023-08-24T01:12:52;19.85;79.05
69009;SHT31;56065;52.472;13.380;2023-08-24T01:15:47;19.83;79.04
69009;SHT31;56065;52.472;13.380;2023-08-24T01:18:16;19.77;79.31
69009;SHT31;56065;52.472;13.380;2023-08-24T01:20:44;19.80;79.39
69009;SHT31;56065;52.472;13.380;2023-08-24T01:23:34;19.80;79.56
69009;SHT31;56065;52.472;13.380;2023-08-24T01:28:36;19.80;79.37
69009;SHT31;56065;52.472;13.380;2023-08-24T01:31:06;19.77;79.38
69009;SHT31;56065;52.472;13.380;2023-08-24T01:33:33;19.82;79.63
69009;SHT31;56065;52.472;13.380;2023-08-24T01:35:58;19.80;79.70
69009;SHT31;56065;52.472;13.380;2023-08-24T01:38:23;19.86;79.93
69009;SHT31;56065;52.472;13.380;2023-08-24T01:41:12;19.90;80.29
69009;SHT31;56065;52.472;13.380;2023-08-24T01:43:39;19.96;80.29
69009;SHT31;56065;52.472;13.380;2023-08-24T01:46:07;20.01;80.36
69009;SHT31;56065;52.472;13.380;2023-08-24T01:48:33;20.10;80.50
69009;SHT31;56065;52.472;13.380;2023-08-24T01:50:59;20.18;80.58
69009;SHT31;56065;52.472;13.380;2023-08-24T01:53:28;20.27;80.74
69009;SHT31;56065;52.472;13.380;2023-08-24T01:55:53;20.31;80.64
69009;SHT31;56065;52.472;13.380;2023-08-24T01:58:19;20.41;80.53
69009;SHT31;56065;52.472;13.380;2023-08-24T02:00:45;20.41;80.49
69009;SHT31;56065;52.472;13.380;2023-08-24T02:03:10;20.40;80.23
69009;SHT31;56065;52.472;13.380;2023-08-24T02:05:35;20.38;80.08
69009;SHT31;56065;52.472;13.380;2023-08-24T02:08:01;20.34;80.26
69009;SHT31;56065;52.472;13.380;2023-08-24T02:10:26;20.36;80.09
69009;SHT31;56065;52.472;13.380;2023-08-24T02:12:51;20.41;80.09
69009;SHT31;56065;52.472;13.380;2023-08-24T02:15:17;20.47;80.04
69009;SHT31;56065;52.472;13.380;2023-08-24T02:17:43;20.58;80.09
69009;SHT31;56065;52.472;13.380;2023-08-24T02:20:09;20.63;79.86
69009;SHT31;56065;52.472;13.380;2023-08-24T02:22:36;20.65;79.82
69009;SHT31;56065;52.472;13.380;2023-08-24T02:25:02;20.72;79.91
69009;SHT31;56065;52.472;13.380;2023-08-24T02:27:28;20.74;79.63
69009;SHT31;56065;52.472;13.380;2023-08-24T02:29:53;20.81;79.46
69009;SHT31;56065;52.472;13.380;2023-08-24T02:32:19;20.82;79.15
69009;SHT31;56065;52.472;13.380;2023-08-24T02:34:44;20.78;78.98
69009;SHT31;56065;52.472;13.380;2023-08-24T02:37:09;20.81;78.85
69009;SHT31;56065;52.472;13.380;2023-08-24T02:39:35;20.82;78.59
69009;SHT31;56065;52.472;13.380;2023-08-24T02:42:00;20.82;78.45
69009;SHT31;56065;52.472;13.380;2023-08-24T02:44:26;20.82;78.31
69009;SHT31;56065;52.472;13.380;2023-08-24T02:46:53;20.82;78.06
69009;SHT31;56065;52.472;13.380;2023-08-24T02:49:19;20.86;78.23
69009;SHT31;56065;52.472;13.380;2023-08-24T02:51:44;20.84;78.23
69009;SHT31;56065;52.472;13.380;2023-08-24T02:54:09;20.81;78.18
69009;SHT31;56065;52.472;13.380;2023-08-24T02:56:34;20.79;78.51
69009;SHT31;56065;52.472;13.380;2023-08-24T02:59:00;20.78;78.70
69009;SHT31;56065;52.472;13.380;2023-08-24T03:01:25;20.82;78.80
69009;SHT31;56065;52.472;13.380;2023-08-24T03:03:51;20.85;78.97
69009;SHT31;56065;52.472;13.380;2023-08-24T03:06:17;20.88;78.88
69009;SHT31;56065;52.472;13.380;2023-08-24T03:08:42;20.88;78.51
69009;SHT31;56065;52.472;13.380;2023-08-24T03:11:08;20.91;78.51
69009;SHT31;56065;52.472;13.380;2023-08-24T03:13:36;20.92;78.07
69009;SHT31;56065;52.472;13.380;2023-08-24T03:16:05;20.92;77.88
69009;SHT31;56065;52.472;13.380;2023-08-24T03:18:31;20.92;78.06
69009;SHT31;56065;52.472;13.380;2023-08-24T03:20:56;20.96;77.96
69009;SHT31;56065;52.472;13.380;2023-08-24T03:23:22;20.98;77.82
69009;SHT31;56065;52.472;13.380;2023-08-24T03:25:47;20.99;77.54
69009;SHT31;56065;52.472;13.380;2023-08-24T03:28:13;21.00;76.62
69009;SHT31;56065;52.472;13.380;2023-08-24T03:30:44;21.00;76.80
69009;SHT31;56065;52.472;13.380;2023-08-24T03:33:10;20.99;76.91
69009;SHT31;56065;52.472;13.380;2023-08-24T03:35:35;20.96;76.41
69009;SHT31;56065;52.472;13.380;2023-08-24T03:38:00;21.00;76.25
69009;SHT31;56065;52.472;13.380;2023-08-24T03:40:26;21.02;76.22
69009;SHT31;56065;52.472;13.380;2023-08-24T03:42:51;20.96;76.12
69009;SHT31;56065;52.472;13.380;2023-08-24T03:45:18;20.99;76.09
69009;SHT31;56065;52.472;13.380;2023-08-24T03:47:44;21.03;76.08
69009;SHT31;56065;52.472;13.380;2023-08-24T03:50:09;21.06;76.04
69009;SHT31;56065;52.472;13.380;2023-08-24T03:52:35;21.06;76.04
69009;SHT31;56065;52.472;13.380;2023-08-24T03:55:00;21.09;76.13
69009;SHT31;56065;52.472;13.380;2023-08-24T03:57:26;21.06;76.12
69009;SHT31;56065;52.472;13.380;2023-08-24T03:59:51;21.03;76.14
69009;SHT31;56065;52.472;13.380;2023-08-24T04:02:17;20.99;75.95
69009;SHT31;56065;52.472;13.380;2023-08-24T04:04:43;20.92;76.15
69009;SHT31;56065;52.472;13.380;2023-08-24T04:07:08;20.94;76.15
69009;SHT31;56065;52.472;13.380;2023-08-24T04:09:33;20.94;76.45
69009;SHT31;56065;52.472;13.380;2023-08-24T04:11:59;20.92;76.41
69009;SHT31;56065;52.472;13.380;2023-08-24T04:14:24;20.95;76.52
69009;SHT31;56065;52.472;13.380;2023-08-24T04:16:49;20.94;76.19
69009;SHT31;56065;52.472;13.380;2023-08-24T04:19:15;21.00;76.17
69009;SHT31;56065;52.472;13.380;2023-08-24T04:21:40;21.02;76.05
69009;SHT31;56065;52.472;13.380;2023-08-24T04:24:05;21.00;76.00
69009;SHT31;56065;52.472;13.380;2023-08-24T04:26:31;21.05;76.02
69009;SHT31;56065;52.472;13.380;2023-08-24T04:28:56;21.07;75.84
69009;SHT31;56065;52.472;13.380;2023-08-24T04:31:22;21.09;75.69
69009;SHT31;56065;52.472;13.380;2023-08-24T04:33:47;21.12;75.66
69009;SHT31;56065;52.472;13.380;2023-08-24T04:36:12;21.06;75.49
69009;SHT31;56065;52.472;13.380;2023-08-24T04:38:38;21.12;75.70
69009;SHT31;56065;52.472;13.380;2023-08-24T04:41:06;21.18;75.85
69009;SHT31;56065;52.472;13.380;2023-08-24T04:43:32;21.18;75.47
69009;SHT31;56065;52.472;13.380;2023-08-24T04:45:58;21.16;75.43
69009;SHT31;56065;52.472;13.380;2023-08-24T04:48:24;21.16;75.38
69009;SHT31;56065;52.472;13.380;2023-08-24T04:50:51;21.22;75.50
69009;SHT31;56065;52.472;13.380;2023-08-24T04:53:18;21.22;75.44
69009;SHT31;56065;52.472;13.380;2023-08-24T04:55:44;21.25;75.56
69009;SHT31;56065;52.472;13.380;2023-08-24T04:58:10;21.26;75.36
69009;SHT31;56065;52.472;13.380;2023-08-24T05:00:37;21.23;75.30
69009;SHT31;56065;52.472;13.380;2023-08-24T05:03:06;21.30;75.26
69009;SHT31;56065;52.472;13.380;2023-08-24T05:05:32;21.40;75.05
69009;SHT31;56065;52.472;13.380;2023-08-24T05:07:59;21.49;74.93
69009;SHT31;56065;52.472;13.380;2023-08-24T05:10:25;21.57;74.69
69009;SHT31;56065;52.472;13.380;2023-08-24T05:12:51;21.67;74.79
69009;SHT31;56065;52.472;13.380;2023-08-24T05:15:16;21.77;74.70
69009;SHT31;56065;52.472;13.380;2023-08-24T05:17:42;21.87;74.66
69009;SHT31;56065;52.472;13.380;2023-08-24T05:20:08;21.81;74.43
69009;SHT31;56065;52.472;13.380;2023-08-24T05:22:36;21.90;74.17
69009;SHT31;56065;52.472;13.380;2023-08-24T05:25:01;22.00;74.08
69009;SHT31;56065;52.472;13.380;2023-08-24T05:27:26;22.11;73.93
69009;SHT31;56065;52.472;13.380;2023-08-24T05:29:52;22.26;73.52
69009;SHT31;56065;52.472;13.380;2023-08-24T05:32:17;22.31;73.44
69009;SHT31;56065;52.472;13.380;2023-08-24T05:34:45;22.41;73.26
69009;SHT31;56065;52.472;13.380;2023-08-24T05:37:10;22.51;72.72
69009;SHT31;56065;52.472;13.380;2023-08-24T05:39:35;22.62;72.68
69009;SHT31;56065;52.472;13.380;2023-08-24T05:42:01;22.79;72.61
69009;SHT31;56065;52.472;13.380;2023-08-24T05:44:26;22.92;72.37
69009;SHT31;56065;52.472;13.380;2023-08-24T05:46:51;23.10;72.13
69009;SHT31;56065;52.472;13.380;2023-08-24T05:49:17;23.18;72.02
69009;SHT31;56065;52.472;13.380;2023-08-24T05:51:42;23.28;71.62
69009;SHT31;56065;52.472;13.380;2023-08-24T05:54:07;23.28;71.60
69009;SHT31;56065;52.472;13.380;2023-08-24T05:56:33;23.40;71.52
69009;SHT31;56065;52.472;13.380;2023-08-24T05:58:58;23.43;71.20
69009;SHT31;56065;52.472;13.380;2023-08-24T06:01:24;23.95;70.96
69009;SHT31;56065;52.472;13.380;2023-08-24T06:03:50;24.47;69.69
69009;SHT31;56065;52.472;13.380;2023-08-24T06:06:16;24.73;68.78
69009;SHT31;56065;52.472;13.380;2023-08-24T06:08:41;25.75;67.83
69009;SHT31;56065;52.472;13.380;2023-08-24T06:11:07;26.43;65.26
69009;SHT31;56065;52.472;13.380;2023-08-24T06:13:32;27.06;64.43
69009;SHT31;56065;52.472;13.380;2023-08-24T06:15:58;28.22;62.99
69009;SHT31;56065;52.472;13.380;2023-08-24T06:18:23;28.67;60.05
69009;SHT31;56065;52.472;13.380;2023-08-24T06:20:49;28.96;59.08
69009;SHT31;56065;52.472;13.380;2023-08-24T06:23:18;29.44;58.48
69009;SHT31;56065;52.472;13.380;2023-08-24T06:25:44;30.52;58.15
69009;SHT31;56065;52.472;13.380;2023-08-24T06:28:11;31.75;57.33
69009;SHT31;56065;52.472;13.380;2023-08-24T06:30:40;32.48;55.00
69009;SHT31;56065;52.472;13.380;2023-08-24T06:33:06;32.82;53.82
69009;SHT31;56065;52.472;13.380;2023-08-24T06:35:35;33.47;52.41
69009;SHT31;56065;52.472;13.380;2023-08-24T06:38:01;33.80;51.78
69009;SHT31;56065;52.472;13.380;2023-08-24T06:40:26;34.32;51.67
69009;SHT31;56065;52.472;13.380;2023-08-24T06:42:51;35.03;51.06
69009;SHT31;56065;52.472;13.380;2023-08-24T06:45:17;35.10;50.14
69009;SHT31;56065;52.472;13.380;2023-08-24T06:47:44;35.25;49.59
69009;SHT31;56065;52.472;13.380;2023-08-24T06:50:10;35.37;48.68
69009;SHT31;56065;52.472;13.380;2023-08-24T06:52:36;36.19;48.86
69009;SHT31;56065;52.472;13.380;2023-08-24T06:55:02;36.94;47.39
69009;SHT31;56065;52.472;13.380;2023-08-24T06:57:27;37.54;47.36
69009;SHT31;56065;52.472;13.380;2023-08-24T06:59:52;37.84;46.53
69009;SHT31;56065;52.472;13.380;2023-08-24T07:02:18;38.09;45.83
69009;SHT31;56065;52.472;13.380;2023-08-24T07:04:44;38.05;45.41
69009;SHT31;56065;52.472;13.380;2023-08-24T07:07:09;38.05;45.25
69009;SHT31;56065;52.472;13.380;2023-08-24T07:09:35;37.54;45.44
69009;SHT31;56065;52.472;13.380;2023-08-24T07:12:02;37.99;45.30
69009;SHT31;56065;52.472;13.380;2023-08-24T07:14:28;38.67;45.70
69009;SHT31;56065;52.472;13.380;2023-08-24T07:16:53;38.62;44.32
69009;SHT31;56065;52.472;13.380;2023-08-24T07:19:19;38.13;45.10
69009;SHT31;56065;52.472;13.380;2023-08-24T07:21:44;38.46;44.99
69009;SHT31;56065;52.472;13.380;2023-08-24T07:24:10;39.11;43.93
69009;SHT31;56065;52.472;13.380;2023-08-24T07:26:36;38.46;43.66
69009;SHT31;56065;52.472;13.380;2023-08-24T07:29:01;38.59;43.93
69009;SHT31;56065;52.472;13.380;2023-08-24T07:31:26;39.08;44.05
69009;SHT31;56065;52.472;13.380;2023-08-24T07:33:52;38.98;43.40
69009;SHT31;56065;52.472;13.380;2023-08-24T07:36:17;39.90;43.65
69009;SHT31;56065;52.472;13.380;2023-08-24T07:38:45;40.60;43.04
69009;SHT31;56065;52.472;13.380;2023-08-24T07:41:12;40.92;42.21
69009;SHT31;56065;52.472;13.380;2023-08-24T07:43:37;40.74;41.80
69009;SHT31;56065;52.472;13.380;2023-08-24T07:46:03;41.04;41.67
69009;SHT31;56065;52.472;13.380;2023-08-24T07:48:29;41.76;41.73
69009;SHT31;56065;52.472;13.380;2023-08-24T07:50:55;42.41;40.96
69009;SHT31;56065;52.472;13.380;2023-08-24T07:53:20;42.71;40.86
69009;SHT31;56065;52.472;13.380;2023-08-24T07:55:46;42.89;39.57
69009;SHT31;56065;52.472;13.380;2023-08-24T07:58:11;42.79;39.73
69009;SHT31;56065;52.472;13.380;2023-08-24T08:00:37;42.69;39.57
69009;SHT31;56065;52.472;13.380;2023-08-24T08:03:03;42.71;40.29
69009;SHT31;56065;52.472;13.380;2023-08-24T08:05:28;42.78;39.64
69009;SHT31;56065;52.472;13.380;2023-08-24T08:07:54;41.93;40.44
69009;SHT31;56065;52.472;13.380;2023-08-24T08:10:19;42.41;40.30
69009;SHT31;56065;52.472;13.380;2023-08-24T08:12:46;41.69;41.23
69009;SHT31;56065;52.472;13.380;2023-08-24T08:15:12;40.71;41.76
69009;SHT31;56065;52.472;13.380;2023-08-24T08:17:37;39.69;43.08
69009;SHT31;56065;52.472;13.380;2023-08-24T08:20:03;39.05;43.75
69009;SHT31;56065;52.472;13.380;2023-08-24T08:22:28;38.56;44.72
69009;SHT31;56065;52.472;13.380;2023-08-24T08:24:54;37.53;45.93
69009;SHT31;56065;52.472;13.380;2023-08-24T08:27:21;37.61;45.73
69009;SHT31;56065;52.472;13.380;2023-08-24T08:29:47;37.41;45.94
69009;SHT31;56065;52.472;13.380;2023-08-24T08:32:12;36.84;45.58
69009;SHT31;56065;52.472;13.380;2023-08-24T08:34:38;36.12;46.25
69009;SHT31;56065;52.472;13.380;2023-08-24T08:37:03;35.23;48.22
69009;SHT31;56065;52.472;13.380;2023-08-24T08:39:30;34.21;49.07
69009;SHT31;56065;52.472;13.380;2023-08-24T08:41:55;33.40;48.78
69009;SHT31;56065;52.472;13.380;2023-08-24T08:44:21;32.84;50.47
69009;SHT31;56065;52.472;13.380;2023-08-24T08:46:49;32.57;50.52
69009;SHT31;56065;52.472;13.380;2023-08-24T08:49:16;32.31;52.43
69009;SHT31;56065;52.472;13.380;2023-08-24T08:51:41;31.77;53.91
69009;SHT31;56065;52.472;13.380;2023-08-24T08:54:07;31.67;52.87
69009;SHT31;56065;52.472;13.380;2023-08-24T08:56:33;31.25;53.79
69009;SHT31;56065;52.472;13.380;2023-08-24T08:58:59;31.16;54.26
69009;SHT31;56065;52.472;13.380;2023-08-24T09:01:28;31.05;53.69
69009;SHT31;56065;52.472;13.380;2023-08-24T09:03:54;31.05;54.06
69009;SHT31;56065;52.472;13.380;2023-08-24T09:06:20;31.01;54.88
69009;SHT31;56065;52.472;13.380;2023-08-24T09:08:47;30.91;54.97
69009;SHT31;56065;52.472;13.380;2023-08-24T09:11:12;30.80;53.87
69009;SHT31;56065;52.472;13.380;2023-08-24T09:13:39;30.94;55.05
69009;SHT31;56065;52.472;13.380;2023-08-24T09:16:06;32.98;52.41
69009;SHT31;56065;52.472;13.380;2023-08-24T09:18:39;34.07;51.47
69009;SHT31;56065;52.472;13.380;2023-08-24T09:21:08;33.77;51.46
69009;SHT31;56065;52.472;13.380;2023-08-24T09:23:34;33.50;50.20
69009;SHT31;56065;52.472;13.380;2023-08-24T09:26:00;33.13;51.66
69009;SHT31;56065;52.472;13.380;2023-08-24T09:28:25;32.82;52.45
69009;SHT31;56065;52.472;13.380;2023-08-24T09:30:54;32.67;52.70
69009;SHT31;56065;52.472;13.380;2023-08-24T09:33:20;32.68;51.79
69009;SHT31;56065;52.472;13.380;2023-08-24T09:35:54;32.35;51.79
69009;SHT31;56065;52.472;13.380;2023-08-24T09:38:27;33.01;51.85
69009;SHT31;56065;52.472;13.380;2023-08-24T09:40:55;34.04;51.62
69009;SHT31;56065;52.472;13.380;2023-08-24T09:43:21;36.06;49.72
69009;SHT31;56065;52.472;13.380;2023-08-24T09:45:54;37.55;46.84
69009;SHT31;56065;52.472;13.380;2023-08-24T09:48:20;39.18;45.90
69009;SHT31;56065;52.472;13.380;2023-08-24T09:50:50;40.12;44.67
69009;SHT31;56065;52.472;13.380;2023-08-24T09:53:20;41.06;43.47
69009;SHT31;56065;52.472;13.380;2023-08-24T09:55:54;40.67;41.43
69009;SHT31;56065;52.472;13.380;2023-08-24T09:58:23;41.60;42.15
69009;SHT31;56065;52.472;13.380;2023-08-24T10:00:48;42.20;41.50
69009;SHT31;56065;52.472;13.380;2023-08-24T10:03:21;42.56;41.19
69009;SHT31;56065;52.472;13.380;2023-08-24T10:05:51;42.86;41.13
69009;SHT31;56065;52.472;13.380;2023-08-24T10:08:21;43.12;40.68
69009;SHT31;56065;52.472;13.380;2023-08-24T10:10:48;43.30;39.24
69009;SHT31;56065;52.472;13.380;2023-08-24T10:13:23;43.46;38.92
69009;SHT31;56065;52.472;13.380;2023-08-24T10:15:52;43.57;39.69
69009;SHT31;56065;52.472;13.380;2023-08-24T10:18:18;44.08;39.50
69009;SHT31;56065;52.472;13.380;2023-08-24T10:20:45;44.07;39.75
69009;SHT31;56065;52.472;13.380;2023-08-24T10:23:12;44.58;38.01
69009;SHT31;56065;52.472;13.380;2023-08-24T10:25:39;44.51;39.03
69009;SHT31;56065;52.472;13.380;2023-08-24T10:28:07;44.59;39.40
69009;SHT31;56065;52.472;13.380;2023-08-24T10:30:34;44.88;38.53
69009;SHT31;56065;52.472;13.380;2023-08-24T10:33:01;44.89;38.59
69009;SHT31;56065;52.472;13.380;2023-08-24T10:35:27;44.36;39.53
69009;SHT31;56065;52.472;13.380;2023-08-24T10:37:53;44.33;37.96
69009;SHT31;56065;52.472;13.380;2023-08-24T10:40:37;44.20;38.64
69009;SHT31;56065;52.472;13.380;2023-08-24T10:43:09;44.42;39.05
69009;SHT31;56065;52.472;13.380;2023-08-24T10:45:59;43.07;39.03
69009;SHT31;56065;52.472;13.380;2023-08-24T10:48:27;42.38;40.40
69009;SHT31;56065;52.472;13.380;2023-08-24T10:56:18;43.17;39.39
69009;SHT31;56065;52.472;13.380;2023-08-24T10:58:45;43.46;38.27
69009;SHT31;56065;52.472;13.380;2023-08-24T11:01:20;43.64;38.28
69009;SHT31;56065;52.472;13.380;2023-08-24T11:03:49;43.50;39.58
69009;SHT31;56065;52.472;13.380;2023-08-24T11:06:24;43.94;39.32
69009;SHT31;56065;52.472;13.380;2023-08-24T11:09:06;43.49;40.02
69009;SHT31;56065;52.472;13.380;2023-08-24T11:11:32;43.17;40.47
69009;SHT31;56065;52.472;13.380;2023-08-24T11:14:16;43.56;39.01
69009;SHT31;56065;52.472;13.380;2023-08-24T11:16:44;43.47;39.70
69009;SHT31;56065;52.472;13.380;2023-08-24T11:19:13;43.46;39.72
69009;SHT31;56065;52.472;13.380;2023-08-24T11:21:39;43.58;38.90
69009;SHT31;56065;52.472;13.380;2023-08-24T11:24:05;43.23;39.05
69009;SHT31;56065;52.472;13.380;2023-08-24T11:26:31;43.32;40.13
69009;SHT31;56065;52.472;13.380;2023-08-24T11:28:57;43.49;39.57
69009;SHT31;56065;52.472;13.380;2023-08-24T11:31:25;43.42;40.26
69009;SHT31;56065;52.472;13.380;2023-08-24T11:33:54;43.54;40.02
69009;SHT31;56065;52.472;13.380;2023-08-24T11:36:20;43.02;40.01
69009;SHT31;56065;52.472;13.380;2023-08-24T11:38:46;42.85;38.83
69009;SHT31;56065;52.472;13.380;2023-08-24T11:41:16;43.10;38.98
69009;SHT31;56065;52.472;13.380;2023-08-24T11:43:43;42.80;39.04
69009;SHT31;56065;52.472;13.380;2023-08-24T11:46:09;42.19;40.80
69009;SHT31;56065;52.472;13.380;2023-08-24T11:48:34;41.29;40.93
69009;SHT31;56065;52.472;13.380;2023-08-24T11:51:02;40.73;40.76
69009;SHT31;56065;52.472;13.380;2023-08-24T11:53:28;40.91;42.06
69009;SHT31;56065;52.472;13.380;2023-08-24T11:55:56;40.98;42.36
69009;SHT31;56065;52.472;13.380;2023-08-24T11:58:22;41.57;41.33
69009;SHT31;56065;52.472;13.380;2023-08-24T12:00:47;40.95;41.53
69009;SHT31;56065;52.472;13.380;2023-08-24T12:03:13;40.88;41.82
69009;SHT31;56065;52.472;13.380;2023-08-24T12:05:39;40.68;42.39
69009;SHT31;56065;52.472;13.380;2023-08-24T12:08:05;40.83;42.10
69009;SHT31;56065;52.472;13.380;2023-08-24T12:10:31;40.95;42.04
69009;SHT31;56065;52.472;13.380;2023-08-24T12:13:06;41.05;41.85
69009;SHT31;56065;52.472;13.380;2023-08-24T12:15:35;40.03;41.88
69009;SHT31;56065;52.472;13.380;2023-08-24T12:18:14;39.38;43.50
69009;SHT31;56065;52.472;13.380;2023-08-24T12:20:40;39.61;42.06
69009;SHT31;56065;52.472;13.380;2023-08-24T12:23:06;39.31;41.72
69009;SHT31;56065;52.472;13.380;2023-08-24T12:25:43;38.73;43.86
69009;SHT31;56065;52.472;13.380;2023-08-24T12:28:15;38.27;45.25
69009;SHT31;56065;52.472;13.380;2023-08-24T12:30:51;38.62;44.61
69009;SHT31;56065;52.472;13.380;2023-08-24T12:33:27;38.25;45.05
69009;SHT31;56065;52.472;13.380;2023-08-24T12:35:54;37.98;44.71
69009;SHT31;56065;52.472;13.380;2023-08-24T12:38:20;38.15;43.68
69009;SHT31;56065;52.472;13.380;2023-08-24T12:40:46;37.88;43.47
69009;SHT31;56065;52.472;13.380;2023-08-24T12:43:11;37.30;44.09
69009;SHT31;56065;52.472;13.380;2023-08-24T12:45:37;36.91;46.67
69009;SHT31;56065;52.472;13.380;2023-08-24T12:48:06;37.04;45.55
69009;SHT31;56065;52.472;13.380;2023-08-24T12:50:33;37.34;45.05
69009;SHT31;56065;52.472;13.380;2023-08-24T12:52:58;37.37;46.49
69009;SHT31;56065;52.472;13.380;2023-08-24T12:55:26;37.71;45.05
69009;SHT31;56065;52.472;13.380;2023-08-24T12:57:51;37.72;46.36
69009;SHT31;56065;52.472;13.380;2023-08-24T13:00:17;37.57;44.85
69009;SHT31;56065;52.472;13.380;2023-08-24T13:02:43;37.67;45.36
69009;SHT31;56065;52.472;13.380;2023-08-24T13:05:08;37.37;44.76
69009;SHT31;56065;52.472;13.380;2023-08-24T13:07:34;37.08;46.15
69009;SHT31;56065;52.472;13.380;2023-08-24T13:09:59;37.01;46.18
69009;SHT31;56065;52.472;13.380;2023-08-24T13:12:24;37.26;46.39
69009;SHT31;56065;52.472;13.380;2023-08-24T13:14:50;37.55;46.44
69009;SHT31;56065;52.472;13.380;2023-08-24T13:17:15;37.57;46.27
69009;SHT31;56065;52.472;13.380;2023-08-24T13:19:41;37.60;45.72
69009;SHT31;56065;52.472;13.380;2023-08-24T13:22:06;37.13;46.28
69009;SHT31;56065;52.472;13.380;2023-08-24T13:24:33;36.43;46.67
69009;SHT31;56065;52.472;13.380;2023-08-24T13:26:58;35.85;46.91
69009;SHT31;56065;52.472;13.380;2023-08-24T13:29:24;35.81;47.57
69009;SHT31;56065;52.472;13.380;2023-08-24T13:31:50;35.85;47.34
69009;SHT31;56065;52.472;13.380;2023-08-24T13:34:15;35.81;47.13
69009;SHT31;56065;52.472;13.380;2023-08-24T13:36:41;36.06;47.47
69009;SHT31;56065;52.472;13.380;2023-08-24T13:39:06;35.90;47.60
69009;SHT31;56065;52.472;13.380;2023-08-24T13:41:32;35.94;47.77
69009;SHT31;56065;52.472;13.380;2023-08-24T13:43:57;35.95;47.10
69009;SHT31;56065;52.472;13.380;2023-08-24T13:46:22;35.99;47.80
69009;SHT31;56065;52.472;13.380;2023-08-24T13:48:48;35.97;47.95
69009;SHT31;56065;52.472;13.380;2023-08-24T13:51:13;36.04;47.43
69009;SHT31;56065;52.472;13.380;2023-08-24T13:53:38;36.08;46.32
69009;SHT31;56065;52.472;13.380;2023-08-24T13:56:05;35.64;46.13
69009;SHT31;56065;52.472;13.380;2023-08-24T13:58:30;35.47;47.84
69009;SHT31;56065;52.472;13.380;2023-08-24T14:00:58;35.25;48.24
69009;SHT31;56065;52.472;13.380;2023-08-24T14:03:24;35.29;48.49
69009;SHT31;56065;52.472;13.380;2023-08-24T14:05:57;35.25;48.83
69009;SHT31;56065;52.472;13.380;2023-08-24T14:08:23;35.20;49.05
69009;SHT31;56065;52.472;13.380;2023-08-24T14:10:48;34.53;49.10
69009;SHT31;56065;52.472;13.380;2023-08-24T14:13:14;34.28;48.48
69009;SHT31;56065;52.472;13.380;2023-08-24T14:15:40;34.02;49.80
69009;SHT31;56065;52.472;13.380;2023-08-24T14:18:06;34.07;48.08
69009;SHT31;56065;52.472;13.380;2023-08-24T14:20:31;34.01;47.73
69009;SHT31;56065;52.472;13.380;2023-08-24T14:22:56;33.77;49.89
69009;SHT31;56065;52.472;13.380;2023-08-24T14:25:22;33.81;49.11
69009;SHT31;56065;52.472;13.380;2023-08-24T14:27:47;33.89;50.60
69009;SHT31;56065;52.472;13.380;2023-08-24T14:30:13;34.08;49.27
69009;SHT31;56065;52.472;13.380;2023-08-24T14:32:39;34.11;50.26
69009;SHT31;56065;52.472;13.380;2023-08-24T14:35:04;34.27;49.18
69009;SHT31;56065;52.472;13.380;2023-08-24T14:37:30;34.12;49.92
69009;SHT31;56065;52.472;13.380;2023-08-24T14:39:55;33.98;50.44
69009;SHT31;56065;52.472;13.380;2023-08-24T14:42:21;33.87;50.47
69009;SHT31;56065;52.472;13.380;2023-08-24T14:44:46;33.66;50.74
69009;SHT31;56065;52.472;13.380;2023-08-24T14:47:11;33.60;50.93
69009;SHT31;56065;52.472;13.380;2023-08-24T14:49:37;33.67;50.67
69009;SHT31;56065;52.472;13.380;2023-08-24T14:52:02;33.67;49.18
69009;SHT31;56065;52.472;13.380;2023-08-24T14:54:28;33.46;51.15
69009;SHT31;56065;52.472;13.380;2023-08-24T14:56:53;33.43;51.52
69009;SHT31;56065;52.472;13.380;2023-08-24T14:59:18;33.45;51.39
69009;SHT31;56065;52.472;13.380;2023-08-24T15:01:44;33.62;50.33
69009;SHT31;56065;52.472;13.380;2023-08-24T15:04:10;33.69;50.27
69009;SHT31;56065;52.472;13.380;2023-08-24T15:06:35;33.71;50.30
69009;SHT31;56065;52.472;13.380;2023-08-24T15:09:00;33.66;51.29
69009;SHT31;56065;52.472;13.380;2023-08-24T15:11:26;33.69;50.93
69009;SHT31;56065;52.472;13.380;2023-08-24T15:13:52;33.66;50.82
69009;SHT31;56065;52.472;13.380;2023-08-24T15:16:17;33.67;50.76
69009;SHT31;56065;52.472;13.380;2023-08-24T15:18:43;33.76;50.71
69009;SHT31;56065;52.472;13.380;2023-08-24T15:21:08;33.81;50.37